createdAt,value
2023-09-17T18:21:30.655Z,21.36
2023-09-17T18:27:29.683Z,21.28
2023-09-17T18:33:02.644Z,21.20
2023-09-17T18:38:49.439Z,21.16
2023-09-17T18:44:55.120Z,21.09
2023-09-17T18:50:50.204Z,20.96
2023-09-17T18:57:16.813Z,20.82
2023-09-17T19:02:48.795Z,20.64
2023-09-17T19:08:36.763Z,20.48
2023-09-17T19:14:33.737Z,20.32
2023-09-17T19:19:42.839Z,20.16
2023-09-17T19:25:12.284Z,20.05
2023-09-17T19:30:24.064Z,19.92
2023-09-17T19:36:07.687Z,19.75
2023-09-17T19:42:14.123Z,19.65
2023-09-17T19:47:55.641Z,19.58
2023-09-17T19:53:43.458Z,19.59
2023-09-17T19:59:54.937Z,19.58
2023-09-17T20:05:39.332Z,19.55
2023-09-17T20:12:18.736Z,19.50
2023-09-17T20:17:41.634Z,19.45
2023-09-17T20:23:15.522Z,19.39
2023-09-17T20:28:18.851Z,19.28
2023-09-17T20:33:41.619Z,19.17
2023-09-17T20:39:27.630Z,19.09
2023-09-17T20:45:07.717Z,19.06
2023-09-17T20:50:34.058Z,19.01
2023-09-17T20:57:04.870Z,18.91
2023-09-17T21:02:57.108Z,18.83
2023-09-17T21:08:38.073Z,18.80
2023-09-17T21:14:45.533Z,18.77
2023-09-17T21:20:51.977Z,18.72
2023-09-17T21:27:55.656Z,18.60
2023-09-17T21:34:46.537Z,18.51
2023-09-17T21:41:22.056Z,18.46
2023-09-17T21:48:08.491Z,18.38
2023-09-17T21:55:08.619Z,18.30
2023-09-17T22:01:19.732Z,18.29
2023-09-17T22:07:45.765Z,18.29
2023-09-17T22:14:16.530Z,18.33
2023-09-17T22:20:39.902Z,18.35
2023-09-17T22:26:44.652Z,18.32
2023-09-17T22:33:15.454Z,18.26
2023-09-17T22:40:01.655Z,18.24
2023-09-17T22:46:36.990Z,18.24
2023-09-17T22:52:59.731Z,18.25
2023-09-17T22:59:58.494Z,18.21
2023-09-17T23:06:36.611Z,18.16
2023-09-17T23:12:25.534Z,18.10
2023-09-17T23:18:41.479Z,18.06
2023-09-17T23:24:58.172Z,18.04
2023-09-17T23:31:30.593Z,18.01
2023-09-17T23:37:54.132Z,17.88
2023-09-17T23:44:31.946Z,17.80
2023-09-17T23:50:52.327Z,17.75
2023-09-17T23:56:42.734Z,17.67
